createdAt,value
2022-09-07T00:00:53.398Z,40.18
2022-09-07T00:03:21.078Z,40.26
2022-09-07T00:05:51.024Z,40.32
2022-09-07T00:08:20.832Z,40.34
2022-09-07T00:11:05.800Z,40.22
2022-09-07T00:13:36.068Z,40.42
2022-09-07T00:16:08.438Z,40.56
2022-09-07T00:18:35.997Z,40.69
2022-09-07T00:21:06.542Z,40.73
2022-09-07T00:23:35.533Z,40.75
2022-09-07T00:26:08.132Z,40.79
2022-09-07T00:28:36.097Z,40.89
2022-09-07T00:31:04.193Z,41.05
2022-09-07T00:33:31.704Z,41.14
2022-09-07T00:35:59.692Z,41.23
2022-09-07T00:38:26.855Z,41.19
2022-09-07T00:40:54.021Z,41.14
2022-09-07T00:43:39.294Z,41.26
2022-09-07T00:46:12.296Z,41.37
2022-09-07T00:48:58.853Z,41.53
2022-09-07T00:51:43.630Z,41.67
2022-09-07T00:54:19.021Z,41.50
2022-09-07T00:56:49.336Z,41.56
2022-09-07T00:59:20.775Z,41.67
2022-09-07T01:01:48.329Z,41.67
2022-09-07T01:04:16.783Z,41.76
2022-09-07T01:06:44.592Z,41.83
2022-09-07T01:09:20.818Z,41.96
2022-09-07T01:11:51.394Z,41.93
2022-09-07T01:14:29.408Z,42.01
2022-09-07T01:17:15.307Z,42.10
2022-09-07T01:20:05.002Z,42.31
2022-09-07T01:22:54.783Z,42.22
2022-09-07T01:25:51.696Z,42.31
2022-09-07T01:28:33.776Z,42.34
2022-09-07T01:31:14.441Z,42.32
2022-09-07T01:34:09.253Z,42.53
2022-09-07T01:37:06.861Z,42.67
2022-09-07T01:39:48.260Z,42.81
2022-09-07T01:42:21.476Z,42.87
2022-09-07T01:44:58.681Z,42.78
2022-09-07T01:47:48.842Z,42.77
2022-09-07T01:50:42.322Z,42.93
2022-09-07T01:53:16.910Z,43.04
2022-09-07T01:56:18.195Z,43.24
2022-09-07T01:58:52.108Z,43.11
2022-09-07T02:01:54.135Z,43.25
2022-09-07T02:04:28.558Z,43.28
2022-09-07T02:07:21.295Z,43.37
2022-09-07T02:10:11.383Z,43.34
2022-09-07T02:13:08.609Z,43.52
2022-09-07T02:16:00.333Z,43.61
2022-09-07T02:18:34.686Z,43.70
2022-09-07T02:21:03.177Z,43.72
2022-09-07T02:23:40.457Z,43.68
2022-09-07T02:26:15.931Z,43.84
2022-09-07T02:28:44.049Z,43.81
2022-09-07T02:31:11.366Z,43.91
2022-09-07T02:33:38.901Z,43.93
2022-09-07T02:36:06.758Z,43.94
2022-09-07T02:38:36.167Z,44.16
2022-09-07T02:41:04.431Z,44.36
2022-09-07T02:43:33.272Z,44.32
2022-09-07T02:46:29.573Z,44.46
2022-09-07T02:49:16.897Z,44.71
2022-09-07T02:52:16.206Z,44.76
2022-09-07T02:55:05.851Z,44.79
2022-09-07T02:57:35.317Z,44.90
2022-09-07T03:00:21.121Z,45.14
2022-09-07T03:03:18.711Z,45.23
2022-09-07T03:05:48.557Z,45.37
2022-09-07T03:08:26.897Z,45.37
2022-09-07T03:10:54.944Z,45.46
2022-09-07T03:13:28.203Z,45.45
2022-09-07T03:15:56.734Z,45.60
2022-09-07T03:18:24.889Z,45.56
2022-09-07T03:20:51.943Z,45.62
2022-09-07T03:23:19.203Z,45.59
2022-09-07T03:25:47.939Z,45.59
2022-09-07T03:28:16.268Z,45.52
2022-09-07T03:30:45.347Z,45.54
2022-09-07T03:33:12.461Z,45.63
2022-09-07T03:35:39.874Z,45.47
2022-09-07T03:38:07.011Z,45.51
2022-09-07T03:40:34.121Z,45.56
2022-09-07T03:43:01.098Z,45.66
2022-09-07T03:45:28.166Z,45.64
2022-09-07T03:47:55.678Z,45.57
2022-09-07T03:50:22.865Z,45.64
2022-09-07T03:52:49.878Z,45.69
2022-09-07T03:55:16.948Z,45.73
2022-09-07T03:57:44.129Z,45.81
2022-09-07T04:00:12.223Z,45.92
2022-09-07T04:02:42.557Z,45.83
2022-09-07T04:05:10.016Z,45.99
2022-09-07T04:07:36.979Z,46.03
2022-09-07T04:10:04.338Z,46.24
2022-09-07T04:12:31.354Z,46.59
2022-09-07T04:14:58.336Z,46.60
2022-09-07T04:17:26.158Z,46.73
2022-09-07T04:19:53.174Z,46.89
2022-09-07T04:22:28.890Z,46.82
2022-09-07T04:24:56.083Z,47.13
2022-09-07T04:27:22.977Z,47.28
2022-09-07T04:29:50.154Z,47.64
2022-09-07T04:32:17.180Z,47.87
2022-09-07T04:34:44.350Z,48.16
2022-09-07T04:37:12.759Z,48.12
2022-09-07T04:39:39.929Z,48.52
2022-09-07T04:42:07.003Z,48.93
2022-09-07T04:44:34.462Z,49.29
2022-09-07T04:47:01.548Z,49.90
2022-09-07T04:49:28.700Z,50.21
2022-09-07T04:51:55.677Z,50.07
2022-09-07T04:54:22.755Z,50.53
2022-09-07T04:56:49.738Z,50.77
2022-09-07T04:59:16.591Z,51.02
2022-09-07T05:01:43.667Z,51.64
2022-09-07T05:04:14.159Z,51.93
2022-09-07T05:06:41.797Z,52.27
2022-09-07T05:09:10.818Z,52.32
2022-09-07T05:11:37.877Z,52.41
2022-09-07T05:14:05.350Z,52.60
2022-09-07T05:16:34.193Z,52.71
2022-09-07T05:19:08.435Z,52.68
2022-09-07T05:21:46.025Z,52.74
2022-09-07T05:24:13.318Z,52.69
2022-09-07T05:26:40.444Z,52.41
2022-09-07T05:31:55.161Z,52.45
2022-09-07T05:34:29.971Z,52.52
2022-09-07T05:36:59.058Z,52.55
2022-09-07T05:39:26.889Z,52.62
2022-09-07T05:41:54.187Z,52.54
2022-09-07T05:47:09.834Z,51.94
2022-09-07T05:49:36.690Z,51.35
2022-09-07T05:52:03.837Z,51.20
2022-09-07T05:54:30.935Z,51.24
2022-09-07T05:56:57.922Z,51.24
2022-09-07T05:59:24.737Z,51.29
2022-09-07T06:01:51.690Z,51.20
2022-09-07T06:04:18.639Z,51.12
2022-09-07T06:07:04.648Z,51.00
2022-09-07T06:09:32.436Z,50.64
2022-09-07T06:11:59.544Z,50.83
2022-09-07T06:14:26.320Z,50.74
2022-09-07T06:16:54.051Z,50.85
2022-09-07T06:19:21.071Z,50.74
2022-09-07T06:21:47.887Z,50.49
2022-09-07T06:24:14.762Z,50.16
2022-09-07T06:26:41.668Z,50.12
2022-09-07T06:29:10.918Z,49.92
2022-09-07T06:34:25.831Z,49.66
2022-09-07T06:36:52.614Z,49.58
2022-09-07T06:39:19.351Z,49.36
2022-09-07T06:42:01.818Z,48.97
2022-09-07T06:44:31.326Z,48.70
2022-09-07T06:47:05.275Z,48.23
2022-09-07T06:49:32.336Z,48.12
2022-09-07T06:51:59.189Z,47.76
2022-09-07T06:57:12.884Z,47.02
2022-09-07T06:59:39.980Z,46.53
2022-09-07T07:02:08.176Z,46.14
2022-09-07T07:04:40.236Z,45.24
2022-09-07T07:07:12.528Z,44.87
2022-09-07T07:09:40.334Z,43.93
2022-09-07T07:12:07.647Z,43.63
2022-09-07T07:14:37.423Z,43.53
2022-09-07T07:17:06.788Z,43.16
2022-09-07T07:19:33.731Z,42.77
2022-09-07T07:24:47.797Z,42.28
2022-09-07T07:27:14.531Z,41.90
2022-09-07T07:29:42.482Z,41.72
2022-09-07T07:32:09.879Z,41.07
2022-09-07T07:34:36.778Z,40.62
2022-09-07T07:37:03.625Z,40.19
2022-09-07T07:42:17.322Z,39.72
2022-09-07T07:44:45.037Z,39.68
2022-09-07T07:47:11.822Z,38.92
2022-09-07T07:49:38.669Z,38.77
2022-09-07T07:54:53.349Z,38.39
2022-09-07T07:57:20.191Z,38.15
2022-09-07T07:59:46.963Z,37.56
2022-09-07T08:02:16.276Z,37.46
2022-09-07T08:04:43.655Z,37.29
2022-09-07T08:07:12.227Z,37.57
2022-09-07T08:09:43.310Z,37.43
2022-09-07T08:12:12.412Z,37.09
2022-09-07T08:14:41.515Z,36.82
2022-09-07T08:17:14.428Z,36.44
2022-09-07T08:19:41.618Z,36.47
2022-09-07T08:22:11.007Z,36.12
2022-09-07T08:24:38.165Z,35.84
2022-09-07T08:27:05.437Z,35.89
2022-09-07T08:29:35.315Z,35.83
2022-09-07T08:32:05.210Z,35.67
2022-09-07T08:34:32.522Z,35.50
2022-09-07T08:36:59.368Z,35.65
2022-09-07T08:39:26.380Z,35.29
2022-09-07T08:42:07.129Z,35.15
2022-09-07T08:44:39.379Z,35.17
2022-09-07T08:47:19.182Z,34.82
2022-09-07T08:50:02.327Z,34.31
2022-09-07T08:52:48.279Z,33.96
2022-09-07T08:55:31.438Z,33.29
2022-09-07T08:58:32.565Z,33.00
2022-09-07T09:01:33.748Z,32.66
2022-09-07T09:04:17.997Z,32.05
2022-09-07T09:07:03.304Z,31.61
2022-09-07T09:09:35.678Z,31.68
2022-09-07T09:12:23.716Z,31.72
2022-09-07T09:14:59.522Z,31.11
2022-09-07T09:17:26.271Z,31.01
2022-09-07T09:19:55.824Z,30.78
2022-09-07T09:22:26.803Z,30.73
2022-09-07T09:25:03.889Z,30.59
2022-09-07T09:27:30.688Z,29.94
2022-09-07T09:29:57.525Z,29.67
2022-09-07T09:32:35.813Z,29.59
2022-09-07T09:35:18.757Z,29.55
2022-09-07T09:37:46.290Z,29.38
2022-09-07T09:40:39.390Z,29.18
2022-09-07T09:43:21.720Z,29.04
2022-09-07T09:48:41.748Z,28.98
2022-09-07T09:54:00.100Z,28.45
2022-09-07T09:56:57.027Z,28.32
2022-09-07T10:05:28.666Z,26.90
2022-09-07T10:07:56.928Z,26.51
2022-09-07T10:10:24.583Z,26.65
2022-09-07T10:12:54.672Z,26.22
2022-09-07T10:15:29.297Z,26.35
2022-09-07T10:17:58.377Z,25.85
2022-09-07T10:20:37.004Z,25.86
2022-09-07T10:23:06.004Z,25.47
2022-09-07T10:25:41.209Z,25.32
2022-09-07T10:28:11.771Z,25.09
2022-09-07T10:30:47.903Z,24.67
2022-09-07T10:33:24.583Z,24.42
2022-09-07T10:36:36.841Z,24.52
2022-09-07T10:39:08.560Z,24.20
2022-09-07T10:41:35.561Z,24.32
2022-09-07T10:44:04.774Z,24.41
2022-09-07T10:46:58.612Z,24.18
2022-09-07T10:49:34.621Z,23.74
2022-09-07T10:52:16.672Z,24.09
2022-09-07T10:55:18.056Z,23.54
2022-09-07T10:57:54.522Z,23.23
2022-09-07T11:00:24.427Z,23.04
2022-09-07T11:03:36.036Z,22.89
2022-09-07T11:06:14.250Z,22.94
2022-09-07T11:12:09.886Z,22.44
2022-09-07T11:14:43.222Z,21.98
2022-09-07T11:17:21.111Z,22.12
2022-09-07T11:19:56.988Z,22.28
2022-09-07T11:22:45.691Z,22.22
2022-09-07T11:25:30.428Z,21.82
2022-09-07T11:28:23.471Z,21.92
2022-09-07T11:31:00.067Z,21.45
2022-09-07T11:33:42.151Z,21.22
2022-09-07T11:36:14.823Z,20.81
2022-09-07T11:38:51.486Z,21.10
2022-09-07T11:41:30.164Z,21.03
2022-09-07T11:44:13.828Z,20.97
2022-09-07T11:46:51.670Z,20.99
2022-09-07T11:49:24.188Z,20.83
2022-09-07T11:51:55.100Z,20.93
2022-09-07T11:54:33.902Z,20.98
2022-09-07T11:57:18.117Z,21.07
2022-09-07T11:59:51.647Z,20.69
2022-09-07T12:02:58.197Z,20.44
2022-09-07T12:06:01.610Z,20.16
2022-09-07T12:08:58.569Z,20.08
2022-09-07T12:11:46.609Z,20.21
2022-09-07T12:14:22.565Z,20.27
2022-09-07T12:17:01.296Z,20.34
2022-09-07T12:19:28.747Z,19.90
2022-09-07T12:21:59.708Z,20.23
2022-09-07T12:24:35.736Z,19.48
2022-09-07T12:27:23.969Z,19.24
2022-09-07T12:30:14.393Z,19.05
2022-09-07T12:32:55.224Z,19.24
2022-09-07T12:35:28.846Z,18.93
2022-09-07T12:37:57.224Z,18.81
2022-09-07T12:40:36.286Z,19.18
2022-09-07T12:43:15.197Z,18.77
2022-09-07T12:45:45.255Z,18.43
2022-09-07T12:48:17.718Z,18.48
2022-09-07T12:51:59.643Z,18.57
2022-09-07T12:54:42.502Z,18.49
2022-09-07T12:57:33.144Z,18.26
2022-09-07T13:00:25.879Z,18.10
2022-09-07T13:03:51.017Z,17.77
2022-09-07T13:07:01.828Z,17.58
2022-09-07T13:09:23.116Z,17.50
2022-09-07T13:11:49.976Z,17.88
2022-09-07T13:14:23.308Z,17.51
2022-09-07T13:17:29.744Z,17.82
2022-09-07T13:19:56.808Z,17.99
2022-09-07T13:22:29.784Z,17.91
2022-09-07T13:24:59.937Z,17.59
2022-09-07T13:27:43.527Z,17.41
2022-09-07T13:30:16.670Z,17.03
2022-09-07T13:35:32.121Z,17.44
2022-09-07T13:38:03.889Z,17.68
2022-09-07T13:40:38.202Z,17.70
2022-09-07T13:43:06.392Z,17.61
2022-09-07T13:45:54.932Z,17.43
2022-09-07T13:48:37.076Z,17.22
2022-09-07T13:51:30.504Z,16.75
2022-09-07T13:54:19.013Z,17.13
2022-09-07T13:57:04.535Z,17.26
2022-09-07T13:59:34.038Z,16.99
2022-09-07T14:02:01.564Z,17.13
2022-09-07T14:05:05.337Z,16.70
2022-09-07T14:07:33.061Z,16.68
2022-09-07T14:10:20.967Z,16.99
2022-09-07T14:12:53.126Z,17.16
2022-09-07T14:15:42.101Z,16.82
2022-09-07T14:18:22.754Z,16.80
2022-09-07T14:20:54.076Z,16.43
2022-09-07T14:23:32.851Z,16.14
2022-09-07T14:26:20.417Z,15.79
2022-09-07T14:28:50.136Z,15.66
2022-09-07T14:31:20.251Z,15.98
2022-09-07T14:33:59.308Z,15.96
2022-09-07T14:36:48.270Z,15.66
2022-09-07T14:39:18.894Z,15.83
2022-09-07T14:41:46.826Z,16.17
2022-09-07T14:44:46.742Z,16.62
2022-09-07T14:47:29.863Z,16.51
2022-09-07T14:50:05.315Z,16.61
2022-09-07T14:53:33.272Z,16.51
2022-09-07T14:55:32.699Z,16.60
2022-09-07T14:58:36.500Z,16.74
2022-09-07T15:04:15.722Z,17.01
2022-09-07T15:09:43.587Z,17.43
2022-09-07T15:12:19.142Z,17.23
2022-09-07T15:14:47.865Z,17.28
2022-09-07T15:20:35.983Z,17.66
2022-09-07T15:23:05.781Z,17.45
2022-09-07T15:25:34.754Z,17.45
2022-09-07T15:28:02.108Z,17.30
2022-09-07T15:30:29.200Z,17.25
2022-09-07T15:32:57.330Z,17.55
2022-09-07T15:35:27.285Z,17.34
2022-09-07T15:38:02.911Z,16.97
2022-09-07T15:41:03.798Z,17.28
2022-09-07T15:43:29.129Z,17.37
2022-09-07T15:45:56.242Z,17.65
2022-09-07T15:48:27.693Z,17.61
2022-09-07T15:54:17.679Z,17.93
2022-09-07T15:57:48.483Z,18.21
2022-09-07T15:59:32.110Z,18.31
2022-09-07T16:01:59.427Z,18.59
2022-09-07T16:04:26.662Z,18.70
2022-09-07T16:06:53.675Z,18.78
2022-09-07T16:09:21.707Z,19.18
2022-09-07T16:11:50.658Z,19.23
2022-09-07T16:14:18.698Z,19.40
2022-09-07T16:19:35.054Z,19.50
2022-09-07T16:22:03.364Z,19.57
2022-09-07T16:24:30.586Z,19.76
2022-09-07T16:26:57.718Z,20.16
2022-09-07T16:29:24.741Z,20.37
2022-09-07T16:34:39.940Z,20.83
2022-09-07T16:37:07.661Z,20.97
2022-09-07T16:39:35.586Z,21.45
2022-09-07T16:42:03.023Z,21.56
2022-09-07T16:44:30.202Z,21.68
2022-09-07T16:46:57.517Z,21.80
2022-09-07T16:49:24.945Z,22.22
2022-09-07T16:51:52.595Z,22.25
2022-09-07T16:54:21.208Z,22.66
2022-09-07T16:56:48.455Z,22.78
2022-09-07T16:59:21.484Z,22.88
2022-09-07T17:01:48.508Z,23.27
2022-09-07T17:04:15.502Z,23.42
2022-09-07T17:06:43.329Z,23.35
2022-09-07T17:09:13.653Z,23.48
2022-09-07T17:11:41.146Z,23.68
2022-09-07T17:14:08.322Z,23.95
2022-09-07T17:16:39.303Z,24.11
2022-09-07T17:21:57.375Z,24.38
2022-09-07T17:24:24.615Z,24.44
2022-09-07T17:26:51.790Z,24.53
2022-09-07T17:29:18.924Z,24.77
2022-09-07T17:34:33.905Z,25.30
2022-09-07T17:37:01.433Z,25.60
2022-09-07T17:39:29.409Z,25.94
2022-09-07T17:41:56.531Z,26.07
2022-09-07T17:44:23.693Z,26.28
2022-09-07T17:46:51.441Z,26.55
2022-09-07T17:49:18.643Z,26.83
2022-09-07T17:51:46.628Z,27.14
2022-09-07T17:54:18.276Z,27.44
2022-09-07T17:56:46.349Z,27.56
2022-09-07T18:02:01.121Z,27.90
2022-09-07T18:04:28.734Z,27.87
2022-09-07T18:06:56.472Z,27.93
2022-09-07T18:09:23.799Z,28.03
2022-09-07T18:11:51.324Z,27.96
2022-09-07T18:14:19.315Z,28.13
2022-09-07T18:16:49.313Z,28.17
2022-09-07T18:19:18.322Z,28.26
2022-09-07T18:21:48.062Z,28.16
2022-09-07T18:24:23.211Z,28.44
2022-09-07T18:26:52.743Z,28.60
2022-09-07T18:29:33.178Z,28.62
2022-09-07T18:32:07.756Z,28.90
2022-09-07T18:34:36.122Z,28.90
2022-09-07T18:37:04.662Z,29.11
2022-09-07T18:39:32.773Z,29.15
2022-09-07T18:41:59.765Z,29.33
2022-09-07T18:47:22.285Z,29.62
2022-09-07T18:49:51.877Z,29.64
2022-09-07T18:55:08.792Z,29.96
2022-09-07T18:57:36.540Z,30.12
2022-09-07T19:00:07.986Z,30.11
2022-09-07T19:02:36.155Z,30.28
2022-09-07T19:07:52.636Z,30.60
2022-09-07T19:10:19.864Z,30.63
2022-09-07T19:12:46.989Z,30.71
2022-09-07T19:15:14.452Z,30.94
2022-09-07T19:17:41.683Z,31.10
2022-09-07T19:20:09.382Z,31.24
2022-09-07T19:22:36.397Z,31.33
2022-09-07T19:25:04.020Z,31.51
2022-09-07T19:27:33.284Z,31.62
2022-09-07T19:30:00.203Z,31.87
2022-09-07T19:32:27.489Z,32.08
2022-09-07T19:34:55.666Z,32.13
2022-09-07T19:37:25.737Z,32.11
2022-09-07T19:39:57.231Z,32.35
2022-09-07T19:42:25.597Z,32.49
2022-09-07T19:44:54.278Z,32.39
2022-09-07T19:47:22.745Z,32.54
2022-09-07T19:49:49.758Z,32.70
2022-09-07T19:52:16.786Z,32.82
2022-09-07T19:54:43.978Z,33.02
2022-09-07T19:57:11.039Z,33.05
2022-09-07T19:59:38.265Z,32.99
2022-09-07T20:02:06.399Z,33.32
2022-09-07T20:04:33.579Z,33.33
2022-09-07T20:07:00.729Z,33.34
2022-09-07T20:09:28.134Z,33.13
2022-09-07T20:11:55.062Z,33.34
2022-09-07T20:14:22.256Z,33.55
2022-09-07T20:16:49.290Z,33.52
2022-09-07T20:19:17.812Z,33.51
2022-09-07T20:21:45.408Z,33.66
2022-09-07T20:24:13.107Z,33.60
2022-09-07T20:26:40.480Z,33.67
2022-09-07T20:31:55.987Z,33.74
2022-09-07T20:34:23.008Z,33.57
2022-09-07T20:36:51.374Z,33.61
2022-09-07T20:39:18.951Z,33.80
2022-09-07T20:41:46.355Z,33.82
2022-09-07T20:44:14.476Z,33.86
2022-09-07T20:46:41.584Z,34.06
2022-09-07T20:49:09.297Z,34.01
2022-09-07T20:51:36.532Z,34.13
2022-09-07T20:54:03.964Z,34.18
2022-09-07T20:56:30.933Z,34.16
2022-09-07T20:59:00.421Z,34.17
2022-09-07T21:01:29.206Z,34.48
2022-09-07T21:03:58.283Z,34.37
2022-09-07T21:06:27.165Z,34.55
2022-09-07T21:08:55.305Z,34.56
2022-09-07T21:11:27.692Z,34.79
2022-09-07T21:14:02.908Z,34.61
2022-09-07T21:16:30.236Z,34.90
2022-09-07T21:19:00.100Z,35.09
2022-09-07T21:21:29.201Z,35.05
2022-09-07T21:23:59.411Z,35.07
2022-09-07T21:26:28.600Z,35.04
2022-09-07T21:29:00.743Z,35.20
2022-09-07T21:31:29.968Z,35.46
2022-09-07T21:33:59.116Z,35.21
2022-09-07T21:36:27.162Z,35.37
2022-09-07T21:38:54.954Z,35.55
2022-09-07T21:41:23.938Z,35.60
2022-09-07T21:44:02.476Z,35.59
2022-09-07T21:46:32.479Z,35.66
2022-09-07T21:49:00.636Z,35.66
2022-09-07T21:51:28.319Z,35.52
2022-09-07T21:53:57.471Z,35.76
2022-09-07T21:56:25.951Z,35.67
2022-09-07T21:58:55.573Z,35.68
2022-09-07T22:01:24.285Z,35.76
2022-09-07T22:03:59.745Z,35.81
2022-09-07T22:06:28.170Z,35.85
2022-09-07T22:08:55.513Z,35.98
2022-09-07T22:11:24.879Z,35.97
2022-09-07T22:13:57.013Z,35.97
2022-09-07T22:16:24.572Z,36.25
2022-09-07T22:18:52.285Z,36.12
2022-09-07T22:21:22.098Z,36.22
2022-09-07T22:23:52.656Z,36.22
2022-09-07T22:26:22.608Z,36.38
2022-09-07T22:28:49.726Z,36.30
2022-09-07T22:31:20.054Z,36.61
2022-09-07T22:33:48.426Z,36.65
2022-09-07T22:36:19.072Z,36.79
2022-09-07T22:38:48.478Z,36.86
2022-09-07T22:41:18.742Z,37.18
2022-09-07T22:43:47.028Z,37.17
2022-09-07T22:46:15.175Z,37.12
2022-09-07T22:48:44.081Z,37.20
2022-09-07T22:51:14.484Z,37.27
2022-09-07T22:53:43.149Z,37.33
2022-09-07T22:56:16.481Z,37.56
2022-09-07T22:58:47.797Z,37.57
2022-09-07T23:01:15.356Z,37.58
2022-09-07T23:03:44.626Z,37.68
2022-09-07T23:06:32.967Z,37.65
2022-09-07T23:09:01.965Z,37.83
2022-09-07T23:11:29.946Z,37.86
2022-09-07T23:13:59.877Z,37.82
2022-09-07T23:16:28.198Z,37.83
2022-09-07T23:18:58.137Z,37.77
2022-09-07T23:21:26.450Z,37.96
2022-09-07T23:23:56.060Z,38.16
2022-09-07T23:26:28.699Z,38.17
2022-09-07T23:29:00.610Z,38.29
2022-09-07T23:31:29.595Z,38.35
2022-09-07T23:33:57.991Z,38.37
2022-09-07T23:36:25.668Z,38.30
2022-09-07T23:38:56.354Z,38.47
2022-09-07T23:41:25.207Z,38.48
2022-09-07T23:43:53.321Z,38.41
2022-09-07T23:46:21.050Z,38.49
2022-09-07T23:48:49.236Z,38.58
2022-09-07T23:51:21.261Z,38.82
2022-09-07T23:53:51.025Z,38.90
2022-09-07T23:56:17.867Z,39.05
2022-09-07T23:58:45.424Z,39.18
